createdAt,value
2023-03-29T00:01:35.036Z,-2.26
2023-03-29T00:06:48.110Z,-2.34
2023-03-29T00:11:55.751Z,-2.39
2023-03-29T00:17:03.776Z,-2.46
2023-03-29T00:22:11.790Z,-2.51
2023-03-29T00:27:20.058Z,-2.56
2023-03-29T00:32:28.609Z,-2.61
2023-03-29T00:37:38.295Z,-2.65
2023-03-29T00:42:48.589Z,-2.70
2023-03-29T00:48:00.337Z,-2.76
2023-03-29T00:53:12.663Z,-2.80
2023-03-29T00:58:26.622Z,-2.84
2023-03-29T01:03:46.808Z,-2.88
2023-03-29T01:08:58.426Z,-2.91
2023-03-29T01:14:09.647Z,-2.93
2023-03-29T01:19:21.502Z,-2.96
2023-03-29T01:24:53.422Z,-3.00
2023-03-29T01:30:05.478Z,-3.06
2023-03-29T01:35:17.698Z,-3.10
2023-03-29T01:40:27.419Z,-3.17
2023-03-29T01:45:38.310Z,-3.25
2023-03-29T01:50:50.982Z,-3.31
2023-03-29T01:56:02.084Z,-3.36
2023-03-29T02:01:14.068Z,-3.43
2023-03-29T02:06:24.632Z,-3.47
2023-03-29T02:11:32.336Z,-3.50
2023-03-29T02:16:40.569Z,-3.51
2023-03-29T02:21:55.263Z,-3.52
2023-03-29T02:27:02.768Z,-3.54
2023-03-29T02:32:17.562Z,-3.55
2023-03-29T02:37:30.288Z,-3.59
2023-03-29T02:46:26.142Z,-3.61
2023-03-29T02:51:34.224Z,-3.69
2023-03-29T02:56:47.237Z,-3.79
2023-03-29T03:01:53.043Z,-3.86
2023-03-29T03:06:57.333Z,-3.91
2023-03-29T03:12:01.638Z,-3.97
2023-03-29T03:17:06.432Z,-3.99
2023-03-29T03:22:11.266Z,-4.02
2023-03-29T03:27:16.512Z,-4.09
2023-03-29T03:32:21.060Z,-4.14
2023-03-29T03:37:25.727Z,-4.16
2023-03-29T03:42:29.808Z,-4.27
2023-03-29T03:47:34.316Z,-4.38
2023-03-29T03:52:38.685Z,-4.44
2023-03-29T03:57:43.432Z,-4.44
2023-03-29T04:02:48.354Z,-4.45
2023-03-29T04:07:53.843Z,-4.46
2023-03-29T04:13:03.203Z,-4.47
2023-03-29T04:18:07.597Z,-4.50
2023-03-29T04:23:12.064Z,-4.54
2023-03-29T04:28:16.773Z,-4.55
2023-03-29T04:33:21.436Z,-4.55
2023-03-29T04:38:26.301Z,-4.68
2023-03-29T04:43:30.712Z,-4.79
2023-03-29T04:48:37.119Z,-4.79
2023-03-29T04:53:41.922Z,-4.75
2023-03-29T04:58:46.238Z,-4.72
2023-03-29T05:03:51.143Z,-4.67
2023-03-29T05:08:55.287Z,-4.57
2023-03-29T05:14:02.789Z,-4.44
2023-03-29T05:19:05.828Z,-4.30
2023-03-29T05:24:10.574Z,-4.15
2023-03-29T05:29:14.984Z,-4.01
2023-03-29T05:34:20.984Z,-3.81
2023-03-29T05:39:25.615Z,-3.55
2023-03-29T05:44:29.653Z,-3.29
2023-03-29T05:49:34.087Z,-3.03
2023-03-29T05:54:38.211Z,-2.81
2023-03-29T05:59:43.053Z,-2.58
2023-03-29T06:04:48.375Z,-2.31
2023-03-29T06:09:52.745Z,-2.10
2023-03-29T06:14:57.993Z,-1.91
2023-03-29T06:20:04.515Z,-1.73
2023-03-29T06:25:11.133Z,-1.59
2023-03-29T06:30:16.502Z,-1.51
2023-03-29T06:35:20.701Z,-1.44
2023-03-29T06:40:25.101Z,-1.33
2023-03-29T06:45:31.692Z,-1.23
2023-03-29T06:50:35.809Z,-1.08
2023-03-29T06:55:40.859Z,-0.96
2023-03-29T07:00:46.717Z,-0.89
2023-03-29T07:05:51.664Z,-0.84
2023-03-29T07:10:55.807Z,-0.77
2023-03-29T07:16:00.325Z,-0.62
2023-03-29T07:21:05.739Z,-0.47
2023-03-29T07:26:12.225Z,-0.40
2023-03-29T07:31:16.935Z,-0.27
2023-03-29T07:36:21.403Z,-0.18
2023-03-29T07:41:25.799Z,-0.08
2023-03-29T07:46:29.813Z,0.09
2023-03-29T07:51:36.300Z,0.33
2023-03-29T07:56:40.966Z,0.50
2023-03-29T08:01:46.005Z,0.73
2023-03-29T08:06:50.341Z,0.97
2023-03-29T08:11:54.755Z,1.15
2023-03-29T08:16:59.058Z,1.29
2023-03-29T08:22:04.268Z,1.45
2023-03-29T08:27:09.609Z,1.66
2023-03-29T08:32:15.120Z,1.79
2023-03-29T08:37:19.917Z,1.91
2023-03-29T08:42:41.965Z,2.02
2023-03-29T08:47:54.548Z,2.11
2023-03-29T08:53:04.360Z,2.19
2023-03-29T08:58:13.509Z,2.26
2023-03-29T09:03:22.138Z,2.30
2023-03-29T09:08:27.207Z,2.33
2023-03-29T09:13:40.423Z,2.36
2023-03-29T09:18:53.749Z,2.51
2023-03-29T09:24:17.265Z,2.69
2023-03-29T09:29:41.427Z,2.81
2023-03-29T09:34:49.038Z,2.87
2023-03-29T09:39:55.611Z,2.95
2023-03-29T09:45:08.044Z,3.05
2023-03-29T09:50:30.257Z,3.18
2023-03-29T09:55:38.106Z,3.29
2023-03-29T10:00:43.149Z,3.34
2023-03-29T10:05:49.440Z,3.43
2023-03-29T10:10:53.779Z,3.59
2023-03-29T10:16:03.505Z,3.79
2023-03-29T10:21:11.750Z,3.88
2023-03-29T10:26:25.582Z,4.01
2023-03-29T10:31:32.453Z,4.04
2023-03-29T10:36:40.863Z,4.03
2023-03-29T10:46:20.067Z,4.22
2023-03-29T10:51:30.660Z,4.36
2023-03-29T10:56:41.672Z,4.47
2023-03-29T11:02:02.508Z,4.54
2023-03-29T11:07:31.703Z,4.55
2023-03-29T11:12:45.326Z,4.60
2023-03-29T11:18:04.131Z,4.69
2023-03-29T11:23:27.755Z,4.82
2023-03-29T11:28:42.925Z,4.99
2023-03-29T11:34:05.819Z,5.12
2023-03-29T11:39:25.359Z,5.27
2023-03-29T11:44:35.531Z,5.30
2023-03-29T11:49:47.747Z,5.33
2023-03-29T11:55:03.440Z,5.41
2023-03-29T12:00:19.321Z,5.49
2023-03-29T12:05:32.469Z,5.60
2023-03-29T12:10:43.636Z,5.73
2023-03-29T12:15:55.443Z,5.81
2023-03-29T12:21:06.149Z,5.86
2023-03-29T12:26:29.325Z,5.99
2023-03-29T12:31:45.392Z,6.11
2023-03-29T12:37:33.936Z,6.17
2023-03-29T12:42:53.148Z,6.30
2023-03-29T12:48:01.698Z,6.35
2023-03-29T12:53:19.994Z,6.42
2023-03-29T12:58:51.553Z,6.61
2023-03-29T13:04:20.332Z,6.73
2023-03-29T13:09:30.784Z,6.84
2023-03-29T13:14:42.876Z,6.86
2023-03-29T13:19:58.953Z,6.85
2023-03-29T13:25:22.043Z,6.95
2023-03-29T13:30:42.910Z,7.06
2023-03-29T13:35:58.214Z,7.19
2023-03-29T13:41:08.862Z,7.30
2023-03-29T13:46:26.327Z,7.32
2023-03-29T13:51:41.429Z,7.30
2023-03-29T13:57:00.026Z,7.31
2023-03-29T14:02:08.702Z,7.33
2023-03-29T14:07:28.456Z,7.42
2023-03-29T14:12:42.135Z,7.49
2023-03-29T14:17:50.773Z,7.51
2023-03-29T14:22:58.647Z,7.49
2023-03-29T14:28:20.101Z,7.49
2023-03-29T14:33:34.667Z,7.51
2023-03-29T14:38:45.918Z,7.55
2023-03-29T14:43:54.509Z,7.58
2023-03-29T14:49:02.703Z,7.59
2023-03-29T14:54:17.781Z,7.64
2023-03-29T15:07:46.350Z,7.60
2023-03-29T15:12:55.181Z,7.55
2023-03-29T15:18:04.462Z,7.53
2023-03-29T15:23:25.942Z,7.50
2023-03-29T15:28:35.834Z,7.47
2023-03-29T15:33:44.862Z,7.44
2023-03-29T15:38:52.376Z,7.40
2023-03-29T15:44:00.292Z,7.38
2023-03-29T15:49:07.692Z,7.36
2023-03-29T15:54:15.148Z,7.31
2023-03-29T15:59:23.131Z,7.25
2023-03-29T16:04:30.655Z,7.19
2023-03-29T16:09:38.323Z,7.14
2023-03-29T16:14:45.894Z,7.11
2023-03-29T16:19:53.540Z,7.12
2023-03-29T16:25:00.862Z,7.11
2023-03-29T16:30:11.531Z,7.10
2023-03-29T16:35:27.035Z,7.06
2023-03-29T16:40:34.729Z,6.98
2023-03-29T16:45:42.192Z,6.89
2023-03-29T16:50:50.420Z,6.80
2023-03-29T16:55:58.754Z,6.68
2023-03-29T17:01:12.329Z,6.57
2023-03-29T17:06:20.716Z,6.47
2023-03-29T17:11:29.043Z,6.33
2023-03-29T17:16:36.801Z,6.20
2023-03-29T17:21:44.718Z,6.08
2023-03-29T17:26:52.239Z,5.95
2023-03-29T17:31:59.855Z,5.82
2023-03-29T17:37:08.069Z,5.69
2023-03-29T17:42:16.206Z,5.56
2023-03-29T17:47:23.820Z,5.42
2023-03-29T17:52:31.283Z,5.30
2023-03-29T17:57:39.259Z,5.18
2023-03-29T18:02:47.227Z,5.06
2023-03-29T18:07:56.574Z,4.95
2023-03-29T18:13:03.975Z,4.83
2023-03-29T18:18:11.462Z,4.72
2023-03-29T18:23:18.771Z,4.60
2023-03-29T18:28:26.341Z,4.46
2023-03-29T18:33:35.467Z,4.35
2023-03-29T18:44:27.662Z,4.17
2023-03-29T18:49:37.002Z,4.07
2023-03-29T18:54:44.833Z,3.98
2023-03-29T18:59:53.772Z,3.90
2023-03-29T19:05:01.421Z,3.81
2023-03-29T19:10:10.943Z,3.71
2023-03-29T19:15:19.476Z,3.60
2023-03-29T19:20:27.580Z,3.48
2023-03-29T19:25:35.665Z,3.36
2023-03-29T19:30:43.572Z,3.24
2023-03-29T19:35:52.805Z,3.12
2023-03-29T19:41:00.823Z,3.01
2023-03-29T19:46:13.061Z,2.85
2023-03-29T19:51:20.797Z,2.72
2023-03-29T19:56:29.152Z,2.60
2023-03-29T20:01:39.673Z,2.51
2023-03-29T20:06:47.319Z,2.45
2023-03-29T20:11:55.074Z,2.39
2023-03-29T20:17:02.638Z,2.25
2023-03-29T20:22:10.567Z,2.11
2023-03-29T20:27:18.385Z,2.06
2023-03-29T20:32:25.918Z,2.05
2023-03-29T20:37:33.388Z,2.05
2023-03-29T20:42:40.767Z,2.04
2023-03-29T20:47:57.996Z,2.02
2023-03-29T20:53:06.630Z,1.99
2023-03-29T20:58:16.090Z,1.93
2023-03-29T21:03:24.756Z,1.86
2023-03-29T21:22:54.589Z,1.64
2023-03-29T21:28:03.847Z,1.57
2023-03-29T21:33:11.615Z,1.51
2023-03-29T21:38:19.534Z,1.45
2023-03-29T21:43:27.279Z,1.35
2023-03-29T21:48:35.324Z,1.26
2023-03-29T21:53:42.876Z,1.19
2023-03-29T21:58:50.508Z,1.14
2023-03-29T22:03:58.082Z,1.13
2023-03-29T22:09:06.388Z,1.12
2023-03-29T22:14:16.561Z,1.07
2023-03-29T22:19:24.016Z,1.04
2023-03-29T22:24:31.871Z,1.01
2023-03-29T22:29:39.154Z,0.95
2023-03-29T22:34:45.327Z,0.88
2023-03-29T22:39:52.905Z,0.86
2023-03-29T22:45:01.018Z,0.82
2023-03-29T22:50:10.394Z,0.75
2023-03-29T22:55:18.552Z,0.74
2023-03-29T23:00:26.625Z,0.72
2023-03-29T23:05:34.266Z,0.67
2023-03-29T23:10:41.873Z,0.63
2023-03-29T23:15:51.865Z,0.58
2023-03-29T23:21:00.401Z,0.46
2023-03-29T23:26:10.610Z,0.31
2023-03-29T23:31:19.920Z,0.25
2023-03-29T23:36:31.268Z,0.27
2023-03-29T23:41:40.539Z,0.37
2023-03-29T23:46:48.107Z,0.44
2023-03-29T23:51:56.159Z,0.52
2023-03-29T23:57:03.688Z,0.59
